Time;durP1;ratioP1;P1;durP2;ratioP2;P2;SDS_P1;SDS_P2;PMS_P1;PMS_P2;Temp;Humidity;BMP_temperature;BMP_pressure;BME280_temperature;BME280_humidity;BME280_pressure;Samples;Min_cycle;Max_cycle;Signal;HPM_P1;HPM_P2
2021/05/29 00:01:58;;;;;;;6.75;4.28;;;;;;;;;;5051286;28;20104;-75
2021/05/29 00:04:24;;;;;;;6.72;4.93;;;;;;;;;;5051033;28;20055;-75
2021/05/29 00:06:49;;;;;;;7.32;4.68;;;;;;;;;;5038640;28;20115;-75
2021/05/29 00:09:14;;;;;;;7.28;4.28;;;;;;;;;;5039919;28;20086;-76
2021/05/29 00:11:39;;;;;;;7.97;4.50;;;;;;;;;;5055853;28;20092;-76
2021/05/29 00:14:04;;;;;;;7.43;4.78;;;;;;;;;;5065939;28;20041;-76
2021/05/29 00:16:30;;;;;;;7.22;4.28;;;;;;;;;;5050441;28;20036;-75
2021/05/29 00:18:55;;;;;;;7.80;4.65;;;;;;;;;;5061021;28;20461;-75
2021/05/29 00:21:20;;;;;;;9.20;4.53;;;;;;;;;;5069936;28;20493;-74
2021/05/29 00:23:45;;;;;;;9.77;6.55;;;;;;;;;;5064217;28;20033;-75
2021/05/29 00:26:11;;;;;;;7.35;5.32;;;;;;;;;;5050905;28;20017;-74
2021/05/29 00:28:36;;;;;;;8.45;4.90;;;;;;;;;;5032774;28;20028;-76
2021/05/29 00:31:02;;;;;;;7.93;4.80;;;;;;;;;;5050393;28;20025;-76
2021/05/29 00:33:27;;;;;;;8.57;5.60;;;;;;;;;;5050512;28;20041;-75
2021/05/29 00:35:53;;;;;;;8.05;5.40;;;;;;;;;;5057834;28;20470;-76
2021/05/29 00:38:18;;;;;;;9.82;5.63;;;;;;;;;;5069993;28;20013;-76
2021/05/29 00:40:43;;;;;;;10.40;5.70;;;;;;;;;;5062890;28;20024;-76
2021/05/29 00:43:09;;;;;;;10.82;5.80;;;;;;;;;;5064126;28;20017;-76
2021/05/29 00:45:34;;;;;;;8.80;5.20;;;;;;;;;;5057240;28;20047;-76
2021/05/29 00:48:00;;;;;;;10.75;5.93;;;;;;;;;;5064276;28;20021;-76
2021/05/29 00:50:26;;;;;;;7.15;4.82;;;;;;;;;;5062367;28;20044;-75
2021/05/29 00:52:51;;;;;;;9.25;5.47;;;;;;;;;;5068034;28;20067;-74
2021/05/29 00:55:17;;;;;;;6.70;4.80;;;;;;;;;;5068724;28;20021;-76
2021/05/29 00:57:44;;;;;;;7.57;4.68;;;;;;;;;;5064512;28;20025;-75
2021/05/29 01:00:09;;;;;;;10.70;5.15;;;;;;;;;;5054368;28;20058;-75
2021/05/29 01:02:35;;;;;;;8.00;5.13;;;;;;;;;;5055800;28;20104;-75
2021/05/29 01:05:00;;;;;;;7.90;4.80;;;;;;;;;;5065138;28;20078;-76
2021/05/29 01:07:25;;;;;;;6.60;4.90;;;;;;;;;;5049421;28;20017;-76
2021/05/29 01:09:50;;;;;;;7.50;5.18;;;;;;;;;;5049552;28;20040;-76
2021/05/29 01:12:18;;;;;;;9.30;5.25;;;;;;;;;;5051825;28;20096;-75
2021/05/29 01:14:51;;;;;;;6.88;4.20;;;;;;;;;;5053486;28;20446;-75
2021/05/29 01:17:16;;;;;;;7.10;4.43;;;;;;;;;;5049713;28;20090;-76
2021/05/29 01:19:42;;;;;;;8.40;4.47;;;;;;;;;;5055916;28;20025;-76
2021/05/29 01:22:08;;;;;;;7.45;4.35;;;;;;;;;;5049445;28;20052;-75
2021/05/29 01:24:33;;;;;;;6.90;4.57;;;;;;;;;;5057726;28;20037;-75
2021/05/29 01:26:58;;;;;;;5.55;3.58;;;;;;;;;;5068934;28;20028;-75
2021/05/29 01:29:24;;;;;;;4.70;3.50;;;;;;;;;;5062557;28;20507;-75
2021/05/29 01:31:59;;;;;;;4.57;2.90;;;;;;;;;;5061570;28;20047;-74
2021/05/29 01:34:27;;;;;;;3.88;2.67;;;;;;;;;;5057751;28;20067;-76
2021/05/29 01:36:52;;;;;;;5.32;3.35;;;;;;;;;;5068925;28;20025;-76
2021/05/29 01:39:18;;;;;;;5.32;3.42;;;;;;;;;;5061980;28;20160;-75
2021/05/29 01:41:44;;;;;;;7.15;3.75;;;;;;;;;;5061104;28;20032;-74
2021/05/29 01:44:10;;;;;;;4.88;3.28;;;;;;;;;;5047505;28;20432;-75
2021/05/29 01:46:35;;;;;;;5.97;3.47;;;;;;;;;;5056482;28;20051;-74
2021/05/29 01:49:00;;;;;;;5.53;3.28;;;;;;;;;;5068120;28;20405;-74
2021/05/29 01:51:25;;;;;;;4.55;3.10;;;;;;;;;;5068296;28;20514;-75
2021/05/29 01:53:51;;;;;;;5.75;3.83;;;;;;;;;;5031092;28;20028;-76
2021/05/29 01:56:17;;;;;;;5.47;3.10;;;;;;;;;;5054953;28;20478;-76
2021/05/29 01:58:42;;;;;;;6.38;3.50;;;;;;;;;;5049332;28;20021;-75
2021/05/29 02:01:09;;;;;;;4.75;3.20;;;;;;;;;;5067387;28;20020;-76
2021/05/29 02:03:36;;;;;;;4.53;3.33;;;;;;;;;;5068547;28;20450;-75
2021/05/29 02:06:01;;;;;;;4.47;3.20;;;;;;;;;;5066987;28;20039;-75
2021/05/29 02:08:26;;;;;;;4.30;3.00;;;;;;;;;;5070785;28;20036;-75
2021/05/29 02:10:51;;;;;;;4.22;3.05;;;;;;;;;;5072452;28;20028;-75
2021/05/29 02:13:22;;;;;;;5.10;3.15;;;;;;;;;;5066003;28;20146;-75
2021/05/29 02:15:47;;;;;;;6.10;3.55;;;;;;;;;;5057935;28;20479;-75
2021/05/29 02:18:12;;;;;;;4.18;2.90;;;;;;;;;;5054358;28;20067;-75
2021/05/29 02:20:38;;;;;;;4.25;3.03;;;;;;;;;;5072348;28;20040;-75
2021/05/29 02:23:03;;;;;;;5.45;3.53;;;;;;;;;;5062518;28;20056;-76
2021/05/29 02:25:28;;;;;;;4.28;2.97;;;;;;;;;;5052756;28;20041;-76
2021/05/29 02:27:54;;;;;;;5.03;3.17;;;;;;;;;;5055099;28;20523;-75
2021/05/29 02:30:20;;;;;;;5.20;3.30;;;;;;;;;;5071958;28;20065;-75
2021/05/29 02:32:46;;;;;;;5.55;3.35;;;;;;;;;;5044875;28;20083;-75
2021/05/29 02:35:11;;;;;;;5.43;3.40;;;;;;;;;;5060705;28;20363;-74
2021/05/29 02:37:36;;;;;;;6.65;3.70;;;;;;;;;;5064049;28;20024;-75
2021/05/29 02:40:01;;;;;;;4.65;3.65;;;;;;;;;;5052506;28;20028;-75
2021/05/29 02:42:27;;;;;;;5.07;3.50;;;;;;;;;;5059346;28;20108;-74
2021/05/29 02:44:52;;;;;;;6.80;3.58;;;;;;;;;;5065245;28;20160;-76
2021/05/29 02:47:17;;;;;;;5.78;3.63;;;;;;;;;;5052251;28;20031;-75
2021/05/29 02:49:42;;;;;;;6.20;3.75;;;;;;;;;;5058305;28;20055;-75
2021/05/29 02:52:07;;;;;;;6.25;3.58;;;;;;;;;;5071527;28;20024;-74
2021/05/29 02:54:34;;;;;;;4.97;3.50;;;;;;;;;;5057941;28;20428;-74
2021/05/29 02:56:59;;;;;;;5.00;3.35;;;;;;;;;;5066966;28;20047;-74
2021/05/29 02:59:24;;;;;;;5.07;3.40;;;;;;;;;;5051772;28;20029;-74
2021/05/29 03:01:49;;;;;;;5.45;4.03;;;;;;;;;;5033569;28;20025;-73
2021/05/29 03:04:15;;;;;;;5.85;3.90;;;;;;;;;;5051867;28;20028;-73
2021/05/29 03:06:40;;;;;;;5.32;3.67;;;;;;;;;;5055929;28;20024;-73
2021/05/29 03:09:06;;;;;;;7.20;4.28;;;;;;;;;;5064348;28;20082;-74
2021/05/29 03:11:38;;;;;;;5.60;4.03;;;;;;;;;;5071319;28;20323;-74
2021/05/29 03:14:03;;;;;;;7.78;4.20;;;;;;;;;;5067726;28;20464;-76
2021/05/29 03:16:29;;;;;;;5.90;3.90;;;;;;;;;;5056973;28;20021;-75
2021/05/29 03:18:54;;;;;;;6.30;3.78;;;;;;;;;;5051886;28;20029;-74
2021/05/29 03:21:19;;;;;;;7.43;3.80;;;;;;;;;;5053499;28;20138;-75
2021/05/29 03:23:44;;;;;;;6.18;4.50;;;;;;;;;;5062212;28;20017;-74
2021/05/29 03:26:10;;;;;;;5.85;3.90;;;;;;;;;;5034497;28;20083;-74
2021/05/29 03:28:35;;;;;;;5.75;3.63;;;;;;;;;;5063134;28;20021;-74
2021/05/29 03:31:00;;;;;;;6.75;4.40;;;;;;;;;;5051505;28;20535;-74
2021/05/29 03:33:26;;;;;;;6.18;4.22;;;;;;;;;;5051909;28;20084;-74
2021/05/29 03:35:51;;;;;;;5.65;4.03;;;;;;;;;;5071044;28;20467;-74
2021/05/29 03:38:16;;;;;;;8.60;4.13;;;;;;;;;;5039335;28;20395;-75
2021/05/29 03:40:41;;;;;;;6.03;4.20;;;;;;;;;;5071007;28;20073;-74
2021/05/29 03:43:07;;;;;;;6.50;4.05;;;;;;;;;;5058755;28;20162;-75
2021/05/29 03:45:32;;;;;;;5.38;3.72;;;;;;;;;;5051345;28;20081;-75
2021/05/29 03:47:57;;;;;;;7.78;4.28;;;;;;;;;;5069292;28;20061;-75
2021/05/29 03:50:24;;;;;;;7.10;4.20;;;;;;;;;;5070059;28;20042;-75
2021/05/29 03:52:49;;;;;;;5.90;4.05;;;;;;;;;;5063584;28;20012;-75
2021/05/29 03:55:16;;;;;;;7.15;4.03;;;;;;;;;;5063275;28;20471;-75
2021/05/29 03:57:43;;;;;;;7.35;4.35;;;;;;;;;;5070487;28;20759;-75
2021/05/29 04:00:09;;;;;;;6.15;4.05;;;;;;;;;;5054157;28;20098;-74
2021/05/29 04:02:34;;;;;;;7.07;4.47;;;;;;;;;;5067457;28;20020;-73
2021/05/29 04:04:59;;;;;;;5.90;4.20;;;;;;;;;;5070445;28;20024;-74
2021/05/29 04:07:24;;;;;;;4.85;3.60;;;;;;;;;;5070254;28;20051;-73
2021/05/29 04:09:50;;;;;;;5.53;3.78;;;;;;;;;;5060364;28;20033;-75
2021/05/29 04:12:15;;;;;;;7.50;3.83;;;;;;;;;;5066101;28;20375;-74
2021/05/29 04:14:40;;;;;;;6.32;4.00;;;;;;;;;;5069249;28;20074;-74
2021/05/29 04:17:06;;;;;;;6.22;3.88;;;;;;;;;;5058035;28;20028;-74
2021/05/29 04:19:31;;;;;;;5.55;3.70;;;;;;;;;;5070568;28;20148;-74
2021/05/29 04:21:56;;;;;;;8.77;4.20;;;;;;;;;;5051429;28;20512;-74
2021/05/29 04:24:21;;;;;;;7.03;4.10;;;;;;;;;;5066457;28;20028;-76
2021/05/29 04:26:46;;;;;;;6.65;4.35;;;;;;;;;;5044334;28;20013;-76
2021/05/29 04:29:12;;;;;;;8.57;3.70;;;;;;;;;;5050705;28;20556;-76
2021/05/29 04:31:37;;;;;;;5.88;3.67;;;;;;;;;;5062684;28;20047;-76
2021/05/29 04:34:02;;;;;;;7.53;4.10;;;;;;;;;;5051570;28;20563;-75
2021/05/29 04:36:27;;;;;;;7.97;4.30;;;;;;;;;;5061982;28;20027;-75
2021/05/29 04:38:52;;;;;;;6.45;4.18;;;;;;;;;;5040645;28;20028;-75
2021/05/29 04:41:20;;;;;;;5.65;4.00;;;;;;;;;;5061186;28;20160;-75
2021/05/29 04:43:45;;;;;;;7.00;4.03;;;;;;;;;;5069551;28;20032;-75
2021/05/29 04:46:10;;;;;;;8.07;4.20;;;;;;;;;;5063344;28;20398;-75
2021/05/29 04:48:36;;;;;;;6.05;3.95;;;;;;;;;;5066051;28;20041;-74
2021/05/29 04:51:13;;;;;;;5.82;3.72;;;;;;;;;;5059841;28;20032;-74
2021/05/29 04:53:40;;;;;;;6.85;4.13;;;;;;;;;;5058684;28;20074;-74
2021/05/29 04:56:05;;;;;;;7.22;3.75;;;;;;;;;;5057087;28;20027;-75
2021/05/29 04:58:30;;;;;;;7.38;4.28;;;;;;;;;;5059926;28;20020;-77
2021/05/29 05:00:56;;;;;;;6.70;4.00;;;;;;;;;;5059475;28;20024;-76
2021/05/29 05:03:21;;;;;;;5.13;3.92;;;;;;;;;;5056963;28;20502;-75
2021/05/29 05:05:47;;;;;;;4.78;3.03;;;;;;;;;;5053108;28;20517;-76
2021/05/29 05:08:12;;;;;;;5.95;3.35;;;;;;;;;;5071387;28;20021;-77
2021/05/29 05:10:37;;;;;;;5.10;3.33;;;;;;;;;;5061426;28;20051;-75
2021/05/29 05:13:03;;;;;;;6.28;3.67;;;;;;;;;;5058431;28;20027;-77
2021/05/29 05:15:28;;;;;;;7.30;3.53;;;;;;;;;;5069059;28;20013;-77
2021/05/29 05:17:53;;;;;;;5.85;3.80;;;;;;;;;;5068814;28;20066;-77
2021/05/29 05:20:18;;;;;;;5.18;3.33;;;;;;;;;;5069058;28;20482;-76
2021/05/29 05:22:44;;;;;;;5.53;3.33;;;;;;;;;;5062441;28;20060;-76
2021/05/29 05:25:09;;;;;;;4.47;3.28;;;;;;;;;;5049806;28;20029;-76
2021/05/29 05:27:35;;;;;;;5.60;3.75;;;;;;;;;;5049245;28;20032;-75
2021/05/29 05:30:00;;;;;;;4.32;3.50;;;;;;;;;;5049628;28;20017;-76
2021/05/29 05:32:25;;;;;;;4.65;3.30;;;;;;;;;;5054693;28;20494;-75
2021/05/29 05:34:51;;;;;;;7.10;3.80;;;;;;;;;;5056160;28;20033;-76
2021/05/29 05:37:16;;;;;;;6.07;3.50;;;;;;;;;;5068673;28;20466;-75
2021/05/29 05:39:41;;;;;;;5.53;3.35;;;;;;;;;;5057363;28;20023;-76
2021/05/29 05:42:07;;;;;;;4.65;3.10;;;;;;;;;;5055860;28;20021;-75
2021/05/29 05:44:32;;;;;;;4.00;2.92;;;;;;;;;;5052780;28;20032;-75
2021/05/29 05:46:58;;;;;;;4.63;3.05;;;;;;;;;;5068687;28;20043;-76
2021/05/29 05:49:23;;;;;;;4.55;3.00;;;;;;;;;;5050575;28;20098;-77
2021/05/29 05:51:48;;;;;;;5.20;3.33;;;;;;;;;;5068640;28;20036;-75
2021/05/29 05:54:13;;;;;;;4.40;3.00;;;;;;;;;;5053411;28;20025;-76
2021/05/29 05:56:39;;;;;;;5.63;3.15;;;;;;;;;;5039814;28;20177;-77
2021/05/29 05:59:04;;;;;;;4.65;2.85;;;;;;;;;;5060728;28;20047;-77
2021/05/29 06:01:29;;;;;;;4.65;3.13;;;;;;;;;;5056487;28;20016;-77
2021/05/29 06:03:55;;;;;;;5.10;2.67;;;;;;;;;;5061762;28;20072;-77
2021/05/29 06:06:20;;;;;;;4.05;2.88;;;;;;;;;;5044269;28;20128;-76
2021/05/29 06:08:45;;;;;;;4.47;2.90;;;;;;;;;;5055402;28;20029;-77
2021/05/29 06:11:10;;;;;;;3.90;2.50;;;;;;;;;;5068818;28;20107;-77
2021/05/29 06:21:10;;;;;;;3.50;2.33;;;;;;;;;;5049612;28;20056;-75
2021/05/29 06:23:35;;;;;;;4.22;2.63;;;;;;;;;;5057822;28;20763;-76
2021/05/29 06:26:01;;;;;;;3.43;2.37;;;;;;;;;;5062029;28;20514;-76
2021/05/29 06:28:26;;;;;;;3.17;2.50;;;;;;;;;;5048562;28;20274;-77
2021/05/29 06:30:52;;;;;;;3.30;2.40;;;;;;;;;;5049167;28;20078;-77
2021/05/29 06:33:17;;;;;;;4.38;2.58;;;;;;;;;;5060725;28;20396;-75
2021/05/29 06:35:42;;;;;;;3.60;2.43;;;;;;;;;;5069343;28;20027;-75
2021/05/29 06:38:07;;;;;;;6.15;2.40;;;;;;;;;;5068235;28;20258;-77
2021/05/29 06:40:32;;;;;;;4.35;2.72;;;;;;;;;;5063992;28;20035;-76
2021/05/29 06:42:58;;;;;;;3.40;2.28;;;;;;;;;;5059563;28;20020;-77
2021/05/29 06:45:23;;;;;;;2.77;2.10;;;;;;;;;;5057549;28;20479;-75
2021/05/29 06:47:48;;;;;;;4.28;2.65;;;;;;;;;;5058186;28;20251;-74
2021/05/29 06:50:14;;;;;;;5.47;2.35;;;;;;;;;;5059467;28;20029;-77
2021/05/29 06:52:43;;;;;;;3.63;2.15;;;;;;;;;;5052466;28;20040;-75
2021/05/29 07:00:36;;;;;;;2.83;2.00;;;;;;;;;;5071481;28;20543;-75
2021/05/29 07:03:01;;;;;;;3.33;2.45;;;;;;;;;;5071799;28;20025;-75
2021/05/29 07:05:26;;;;;;;4.77;2.60;;;;;;;;;;5058820;28;20498;-75
2021/05/29 07:07:52;;;;;;;4.63;2.88;;;;;;;;;;5071148;28;20290;-75
2021/05/29 07:10:17;;;;;;;5.00;2.40;;;;;;;;;;5071526;28;20063;-77
2021/05/29 07:12:42;;;;;;;4.55;2.60;;;;;;;;;;5071178;28;20210;-75
2021/05/29 07:15:08;;;;;;;6.65;2.63;;;;;;;;;;5071354;28;20028;-76
2021/05/29 07:17:38;;;;;;;3.83;2.70;;;;;;;;;;5041938;28;20025;-76
2021/05/29 07:20:04;;;;;;;3.72;2.50;;;;;;;;;;5056623;28;20054;-74
2021/05/29 07:22:29;;;;;;;4.57;2.20;;;;;;;;;;5071203;28;20025;-74
2021/05/29 07:24:54;;;;;;;4.95;2.08;;;;;;;;;;5064797;28;20041;-75
2021/05/29 07:27:19;;;;;;;4.40;2.37;;;;;;;;;;5071603;28;20052;-75
2021/05/29 07:29:44;;;;;;;3.87;2.00;;;;;;;;;;5055037;28;20275;-75
2021/05/29 07:32:09;;;;;;;3.03;1.80;;;;;;;;;;5069116;28;20294;-74
2021/05/29 07:34:36;;;;;;;4.00;2.20;;;;;;;;;;5073659;28;20032;-75
2021/05/29 07:37:01;;;;;;;3.90;2.20;;;;;;;;;;5064765;28;20255;-75
2021/05/29 07:39:26;;;;;;;4.70;2.30;;;;;;;;;;5070978;28;20032;-75
2021/05/29 07:41:51;;;;;;;3.15;2.15;;;;;;;;;;5057271;28;20081;-75
2021/05/29 07:44:16;;;;;;;4.47;2.30;;;;;;;;;;5058613;28;20402;-76
2021/05/29 07:46:42;;;;;;;4.63;1.88;;;;;;;;;;5071266;28;20036;-76
2021/05/29 07:49:07;;;;;;;6.90;2.53;;;;;;;;;;5064829;28;20032;-78
2021/05/29 07:51:35;;;;;;;4.30;2.38;;;;;;;;;;5051857;28;20028;-76
2021/05/29 07:54:01;;;;;;;5.00;2.17;;;;;;;;;;5058101;28;20467;-76
2021/05/29 07:56:26;;;;;;;2.78;2.00;;;;;;;;;;5064649;28;20036;-75
2021/05/29 07:58:51;;;;;;;3.63;2.15;;;;;;;;;;5057579;28;20078;-76
2021/05/29 08:01:17;;;;;;;3.55;1.90;;;;;;;;;;5074247;28;20023;-76
2021/05/29 08:03:42;;;;;;;7.72;2.50;;;;;;;;;;5070091;28;20050;-76
2021/05/29 08:06:09;;;;;;;4.30;2.30;;;;;;;;;;5070908;28;20071;-75
2021/05/29 08:08:35;;;;;;;4.97;2.30;;;;;;;;;;5064249;28;20441;-77
2021/05/29 08:11:01;;;;;;;2.92;1.90;;;;;;;;;;5066217;28;20090;-76
2021/05/29 08:13:26;;;;;;;3.20;2.10;;;;;;;;;;5036315;28;20033;-76
2021/05/29 08:15:52;;;;;;;6.63;2.63;;;;;;;;;;5067076;28;20083;-76
2021/05/29 08:18:18;;;;;;;7.03;2.58;;;;;;;;;;5053910;28;20027;-77
2021/05/29 08:20:44;;;;;;;3.83;2.13;;;;;;;;;;5066963;28;20013;-77
2021/05/29 08:23:10;;;;;;;5.75;2.20;;;;;;;;;;5051254;28;20052;-77
2021/05/29 08:25:35;;;;;;;3.22;1.98;;;;;;;;;;5066128;28;20479;-77
2021/05/29 08:28:00;;;;;;;4.75;2.75;;;;;;;;;;5070355;28;20025;-77
2021/05/29 08:30:27;;;;;;;4.40;2.05;;;;;;;;;;5061775;28;20024;-77
2021/05/29 08:32:52;;;;;;;3.45;2.13;;;;;;;;;;5050451;28;20048;-76
2021/05/29 08:35:17;;;;;;;4.30;2.03;;;;;;;;;;5051292;28;20021;-77
2021/05/29 08:37:44;;;;;;;2.45;1.75;;;;;;;;;;5038873;28;20036;-77
2021/05/29 08:40:11;;;;;;;3.45;1.88;;;;;;;;;;5050643;28;20479;-77
2021/05/29 08:42:37;;;;;;;3.03;2.00;;;;;;;;;;5050428;28;20033;-77
2021/05/29 08:45:03;;;;;;;3.08;2.17;;;;;;;;;;5051134;28;20067;-76
2021/05/29 08:47:28;;;;;;;3.33;2.00;;;;;;;;;;5044131;28;20076;-76
2021/05/29 08:49:53;;;;;;;2.53;2.05;;;;;;;;;;5038379;28;20588;-77
2021/05/29 08:52:19;;;;;;;6.35;2.40;;;;;;;;;;5064350;28;20448;-76
2021/05/29 08:54:44;;;;;;;3.15;2.00;;;;;;;;;;5055018;28;20077;-76
2021/05/29 08:57:09;;;;;;;2.53;1.70;;;;;;;;;;5050989;28;20100;-75
2021/05/29 08:59:34;;;;;;;3.65;2.10;;;;;;;;;;5054382;28;20111;-76
2021/05/29 09:02:00;;;;;;;3.17;1.77;;;;;;;;;;5058803;28;20048;-77
2021/05/29 09:04:26;;;;;;;6.13;1.70;;;;;;;;;;5049948;28;20025;-77
2021/05/29 09:06:51;;;;;;;2.92;1.80;;;;;;;;;;5041851;28;20077;-76
2021/05/29 09:09:16;;;;;;;3.53;2.33;;;;;;;;;;5069165;28;20060;-77
2021/05/29 09:11:46;;;;;;;2.88;1.80;;;;;;;;;;5066958;28;20294;-76
2021/05/29 09:14:11;;;;;;;;;;;;;;;;;;5049653;28;20023;-76
2021/05/29 09:16:36;;;;;;;2.78;1.35;;;;;;;;;;5056866;28;19908;-77
2021/05/29 09:19:01;;;;;;;2.42;1.67;;;;;;;;;;5046698;28;20094;-77
2021/05/29 09:21:29;;;;;;;2.60;1.80;;;;;;;;;;5054144;28;20032;-76
2021/05/29 09:24:00;;;;;;;2.90;1.83;;;;;;;;;;5052008;28;20096;-76
2021/05/29 09:26:41;;;;;;;3.53;1.60;;;;;;;;;;5069020;28;20490;-77
2021/05/29 09:29:12;;;;;;;2.95;1.60;;;;;;;;;;5062479;28;20086;-77
2021/05/29 09:31:48;;;;;;;2.00;1.33;;;;;;;;;;5062847;28;20498;-76
2021/05/29 09:34:26;;;;;;;2.75;1.83;;;;;;;;;;5072108;28;20041;-77
2021/05/29 09:37:00;;;;;;;3.45;1.60;;;;;;;;;;5062360;28;20051;-76
2021/05/29 09:39:28;;;;;;;7.65;1.60;;;;;;;;;;5050425;28;20024;-77
2021/05/29 09:41:54;;;;;;;3.33;1.90;;;;;;;;;;5062185;28;20032;-77
2021/05/29 09:44:25;;;;;;;3.25;1.90;;;;;;;;;;5068866;28;20020;-77
2021/05/29 09:46:52;;;;;;;3.65;1.90;;;;;;;;;;5062515;28;20025;-77
2021/05/29 09:49:18;;;;;;;4.00;1.95;;;;;;;;;;5036523;28;20467;-77
2021/05/29 09:51:43;;;;;;;2.67;1.73;;;;;;;;;;5062946;28;20073;-77
2021/05/29 09:54:09;;;;;;;3.17;2.00;;;;;;;;;;5042025;28;20066;-77
2021/05/29 09:56:37;;;;;;;2.50;1.80;;;;;;;;;;5049680;28;20024;-76
2021/05/29 09:59:09;;;;;;;4.28;1.70;;;;;;;;;;5048950;28;20013;-77
2021/05/29 10:01:41;;;;;;;3.03;1.67;;;;;;;;;;5043276;28;20020;-76
2021/05/29 10:04:07;;;;;;;3.53;1.90;;;;;;;;;;5062808;28;20029;-76
2021/05/29 10:06:33;;;;;;;3.08;1.90;;;;;;;;;;5050312;28;20376;-77
2021/05/29 10:08:58;;;;;;;3.42;2.13;;;;;;;;;;5068512;28;20020;-77
2021/05/29 10:11:23;;;;;;;3.67;2.40;;;;;;;;;;5063435;28;20039;-76
2021/05/29 10:13:48;;;;;;;4.30;2.10;;;;;;;;;;5068910;28;20017;-76
2021/05/29 10:16:14;;;;;;;3.45;2.15;;;;;;;;;;5049885;28;20021;-77
2021/05/29 10:18:42;;;;;;;3.55;2.00;;;;;;;;;;5049207;28;20386;-77
2021/05/29 10:21:07;;;;;;;3.83;2.30;;;;;;;;;;5049802;28;20520;-77
2021/05/29 10:23:33;;;;;;;2.75;1.90;;;;;;;;;;5046596;28;20115;-77
2021/05/29 10:25:59;;;;;;;3.60;1.75;;;;;;;;;;5055463;28;20064;-76
2021/05/29 10:28:25;;;;;;;4.63;1.70;;;;;;;;;;5061576;28;20067;-77
2021/05/29 10:30:50;;;;;;;2.67;1.88;;;;;;;;;;5052984;28;20025;-78
2021/05/29 10:33:16;;;;;;;5.82;2.00;;;;;;;;;;5066004;28;20487;-78
2021/05/29 10:35:45;;;;;;;2.35;1.60;;;;;;;;;;5056614;28;20474;-77
2021/05/29 10:38:11;;;;;;;3.92;2.25;;;;;;;;;;5072674;28;20100;-77
2021/05/29 10:40:42;;;;;;;3.95;1.70;;;;;;;;;;5055362;28;20021;-77
2021/05/29 10:43:10;;;;;;;2.88;1.70;;;;;;;;;;5052874;28;20049;-77
2021/05/29 10:45:37;;;;;;;3.88;1.77;;;;;;;;;;5052426;28;20352;-77
2021/05/29 10:48:11;;;;;;;3.00;1.70;;;;;;;;;;5056092;28;20055;-77
2021/05/29 10:51:06;;;;;;;3.47;2.00;;;;;;;;;;5054572;28;20411;-77
2021/05/29 10:53:44;;;;;;;3.45;1.73;;;;;;;;;;5052089;28;20035;-76
2021/05/29 10:56:18;;;;;;;3.15;1.83;;;;;;;;;;5052724;28;20048;-76
2021/05/29 10:59:00;;;;;;;3.60;1.88;;;;;;;;;;5063237;28;20027;-77
2021/05/29 11:01:40;;;;;;;2.72;1.73;;;;;;;;;;5071641;28;20016;-77
2021/05/29 11:04:11;;;;;;;3.10;1.42;;;;;;;;;;5053158;28;20739;-76
2021/05/29 11:06:38;;;;;;;2.05;1.58;;;;;;;;;;5057865;28;20083;-76
2021/05/29 11:09:03;;;;;;;2.50;1.50;;;;;;;;;;5052986;28;20024;-77
2021/05/29 11:14:19;;;;;;;2.45;1.70;;;;;;;;;;5064700;28;20059;-77
2021/05/29 11:16:47;;;;;;;2.50;1.55;;;;;;;;;;5069398;28;20028;-77
2021/05/29 11:19:15;;;;;;;2.92;1.83;;;;;;;;;;5052861;28;20035;-76
2021/05/29 11:21:59;;;;;;;2.35;1.67;;;;;;;;;;5062539;28;20315;-76
2021/05/29 11:24:24;;;;;;;3.35;1.60;;;;;;;;;;5061469;28;20025;-75
2021/05/29 11:26:49;;;;;;;2.33;1.67;;;;;;;;;;5057196;28;20032;-76
2021/05/29 11:29:14;;;;;;;3.28;1.70;;;;;;;;;;5065449;28;20328;-77
2021/05/29 11:31:43;;;;;;;2.70;1.80;;;;;;;;;;5069891;28;20033;-76
2021/05/29 11:34:08;;;;;;;2.22;1.40;;;;;;;;;;5065164;28;20036;-76
2021/05/29 11:36:38;;;;;;;3.38;1.50;;;;;;;;;;5060927;28;20053;-76
2021/05/29 11:39:07;;;;;;;4.03;1.90;;;;;;;;;;5051699;28;20024;-80
2021/05/29 11:41:32;;;;;;;1.98;1.55;;;;;;;;;;5062940;28;20032;-78
2021/05/29 11:43:58;;;;;;;3.17;1.50;;;;;;;;;;5061444;28;20036;-78
2021/05/29 11:46:26;;;;;;;3.47;1.92;;;;;;;;;;5068898;28;20029;-78
2021/05/29 11:48:58;;;;;;;3.38;1.50;;;;;;;;;;5058050;28;20546;-80
2021/05/29 11:51:24;;;;;;;3.47;1.80;;;;;;;;;;5061120;28;20036;-79
2021/05/29 11:53:50;;;;;;;2.65;1.60;;;;;;;;;;5062287;28;20471;-79
2021/05/29 11:56:43;;;;;;;2.03;1.45;;;;;;;;;;5068776;28;20031;-78
2021/05/29 11:59:09;;;;;;;2.97;1.50;;;;;;;;;;5054526;28;20491;-78
2021/05/29 12:01:34;;;;;;;2.72;1.50;;;;;;;;;;5044109;28;20067;-77
2021/05/29 12:04:00;;;;;;;2.20;1.40;;;;;;;;;;5051388;28;20017;-76
2021/05/29 12:06:41;;;;;;;2.30;1.45;;;;;;;;;;5051216;28;20039;-76
2021/05/29 12:09:06;;;;;;;1.40;1.13;;;;;;;;;;5051269;28;20142;-74
2021/05/29 12:11:32;;;;;;;2.90;1.27;;;;;;;;;;5057913;28;20024;-75
2021/05/29 12:14:05;;;;;;;4.07;1.65;;;;;;;;;;5063830;28;20268;-78
2021/05/29 12:16:35;;;;;;;2.85;1.20;;;;;;;;;;5069887;28;20040;-75
2021/05/29 12:19:00;;;;;;;3.15;1.40;;;;;;;;;;5062818;28;20056;-77
2021/05/29 12:21:45;;;;;;;2.50;1.30;;;;;;;;;;5057086;28;20443;-76
2021/05/29 12:24:10;;;;;;;2.22;1.17;;;;;;;;;;5051183;28;20025;-79
2021/05/29 12:26:35;;;;;;;1.83;1.30;;;;;;;;;;5060137;28;20882;-76
2021/05/29 12:29:00;;;;;;;1.60;1.15;;;;;;;;;;5063595;28;20426;-79
2021/05/29 12:31:42;;;;;;;3.97;1.30;;;;;;;;;;5061892;28;20471;-81
2021/05/29 12:34:07;;;;;;;1.92;1.25;;;;;;;;;;5060331;28;20114;-75
2021/05/29 12:36:33;;;;;;;1.50;1.13;;;;;;;;;;5053494;28;20029;-76
2021/05/29 12:39:00;;;;;;;1.40;1.10;;;;;;;;;;5035689;28;20274;-76
2021/05/29 12:41:34;;;;;;;2.35;1.35;;;;;;;;;;5060545;28;20017;-77
2021/05/29 12:44:01;;;;;;;1.40;1.10;;;;;;;;;;5066330;28;20070;-75
2021/05/29 12:46:27;;;;;;;3.60;1.30;;;;;;;;;;5059572;28;20037;-77
2021/05/29 12:49:05;;;;;;;2.83;1.20;;;;;;;;;;5050533;28;20017;-76
2021/05/29 12:51:58;;;;;;;2.42;1.20;;;;;;;;;;5050082;28;20017;-76
2021/05/29 12:54:43;;;;;;;1.23;1.00;;;;;;;;;;5047028;28;20043;-75
2021/05/29 12:57:11;;;;;;;1.20;1.10;;;;;;;;;;5066697;28;20486;-75
2021/05/29 12:59:36;;;;;;;1.20;1.02;;;;;;;;;;5052556;28;20054;-75
2021/05/29 13:02:33;;;;;;;2.37;1.10;;;;;;;;;;5065985;28;20020;-76
2021/05/29 13:07:45;;;;;;;1.77;1.20;;;;;;;;;;5053052;28;20039;-75
2021/05/29 13:12:39;;;;;;;1.73;1.20;;;;;;;;;;5069261;28;20424;-76
2021/05/29 13:15:14;;;;;;;4.07;1.23;;;;;;;;;;5062953;28;20075;-77
2021/05/29 13:17:39;;;;;;;2.60;1.20;;;;;;;;;;5068918;28;20482;-77
2021/05/29 13:20:09;;;;;;;3.17;1.50;;;;;;;;;;5066199;28;20017;-75
2021/05/29 13:22:35;;;;;;;2.15;1.30;;;;;;;;;;5056440;28;20025;-75
2021/05/29 13:25:01;;;;;;;2.10;1.20;;;;;;;;;;5056646;28;20108;-76
2021/05/29 13:27:26;;;;;;;1.33;1.10;;;;;;;;;;5051930;28;20100;-76
2021/05/29 13:29:56;;;;;;;4.00;1.20;;;;;;;;;;5067645;28;20020;-76
2021/05/29 13:32:22;;;;;;;1.65;1.20;;;;;;;;;;5047872;28;20017;-76
2021/05/29 13:34:48;;;;;;;2.83;1.23;;;;;;;;;;5068647;28;20047;-76
2021/05/29 13:37:14;;;;;;;1.67;1.00;;;;;;;;;;5067707;28;20103;-76
2021/05/29 13:39:40;;;;;;;2.63;1.20;;;;;;;;;;5051176;28;20035;-77
2021/05/29 13:42:06;;;;;;;1.63;1.10;;;;;;;;;;5068988;28;20067;-75
2021/05/29 13:44:31;;;;;;;2.42;1.02;;;;;;;;;;5069404;28;20059;-76
2021/05/29 13:46:56;;;;;;;1.10;1.00;;;;;;;;;;5062207;28;20057;-76
2021/05/29 13:49:22;;;;;;;1.23;0.88;;;;;;;;;;5068661;28;20356;-76
2021/05/29 13:51:47;;;;;;;1.23;0.95;;;;;;;;;;5049220;28;20097;-76
2021/05/29 13:54:13;;;;;;;3.15;1.20;;;;;;;;;;5049357;28;20086;-75
2021/05/29 13:56:38;;;;;;;3.33;1.33;;;;;;;;;;5069234;28;20121;-75
2021/05/29 13:59:04;;;;;;;2.75;0.98;;;;;;;;;;5050584;28;20321;-76
2021/05/29 14:01:31;;;;;;;1.92;1.30;;;;;;;;;;5054904;28;20029;-74
2021/05/29 14:03:56;;;;;;;2.63;1.35;;;;;;;;;;5048936;28;20035;-74
2021/05/29 14:06:21;;;;;;;1.10;0.90;;;;;;;;;;5050099;28;20029;-75
2021/05/29 14:08:46;;;;;;;1.55;1.00;;;;;;;;;;5067913;28;20016;-75
2021/05/29 14:11:21;;;;;;;2.70;1.10;;;;;;;;;;5052405;28;20021;-75
2021/05/29 14:13:46;;;;;;;1.92;0.82;;;;;;;;;;5055483;28;20017;-75
2021/05/29 14:16:12;;;;;;;1.63;1.00;;;;;;;;;;5057497;28;20438;-74
2021/05/29 14:18:38;;;;;;;1.80;1.08;;;;;;;;;;5049842;28;20247;-74
2021/05/29 14:21:03;;;;;;;1.15;0.80;;;;;;;;;;5066844;28;20448;-74
2021/05/29 14:23:28;;;;;;;2.53;1.60;;;;;;;;;;5062871;28;20103;-74
2021/05/29 14:25:53;;;;;;;2.10;1.40;;;;;;;;;;5068678;28;20513;-76
2021/05/29 14:28:18;;;;;;;3.05;1.17;;;;;;;;;;5059547;28;20259;-76
2021/05/29 14:30:43;;;;;;;2.47;1.40;;;;;;;;;;5049499;28;20093;-75
2021/05/29 14:33:09;;;;;;;1.93;1.10;;;;;;;;;;5064613;28;20836;-76
2021/05/29 14:35:34;;;;;;;2.78;0.80;;;;;;;;;;5069568;28;20385;-78
2021/05/29 14:37:59;;;;;;;3.27;0.77;;;;;;;;;;5056055;28;20434;-75
2021/05/29 14:40:24;;;;;;;2.53;0.90;;;;;;;;;;5054657;28;20262;-75
2021/05/29 14:42:50;;;;;;;1.50;0.95;;;;;;;;;;5050083;28;20837;-76
2021/05/29 14:45:16;;;;;;;1.05;0.95;;;;;;;;;;5068753;28;20125;-75
2021/05/29 14:47:41;;;;;;;1.75;1.00;;;;;;;;;;5062802;28;20478;-76
2021/05/29 14:50:06;;;;;;;2.90;1.10;;;;;;;;;;5049012;28;20029;-76
2021/05/29 14:52:31;;;;;;;2.95;0.98;;;;;;;;;;5068345;28;20120;-76
2021/05/29 14:54:57;;;;;;;2.55;1.27;;;;;;;;;;5055364;28;20129;-76
2021/05/29 14:57:22;;;;;;;2.05;1.20;;;;;;;;;;5050669;28;20017;-75
2021/05/29 14:59:47;;;;;;;2.10;1.10;;;;;;;;;;5048869;28;20119;-76
2021/05/29 15:02:13;;;;;;;3.13;1.67;;;;;;;;;;5059601;28;20023;-76